createdAt,value
2018-11-25T00:00:18.701Z,75.68
2018-11-25T00:02:47.608Z,75.43
2018-11-25T00:05:16.234Z,75.31
2018-11-25T00:07:44.864Z,75.62
2018-11-25T00:10:13.429Z,75.18
2018-11-25T00:12:42.077Z,75.71
2018-11-25T00:15:11.053Z,75.87
2018-11-25T00:17:40.012Z,76.22
2018-11-25T00:20:10.526Z,75.99
2018-11-25T00:22:39.453Z,75.68
2018-11-25T00:25:09.596Z,76.07
2018-11-25T00:27:38.115Z,76.06
2018-11-25T00:30:09.577Z,76.03
2018-11-25T00:32:38.271Z,75.80
2018-11-25T00:35:08.027Z,75.36
2018-11-25T00:37:36.552Z,75.98
2018-11-25T00:40:06.893Z,75.73
2018-11-25T00:42:35.844Z,75.59
2018-11-25T00:45:05.182Z,75.82
2018-11-25T00:47:33.854Z,75.42
2018-11-25T00:50:02.470Z,75.32
2018-11-25T00:52:31.081Z,75.24
2018-11-25T00:54:59.658Z,75.51
2018-11-25T00:57:28.241Z,75.40
2018-11-25T00:59:56.898Z,75.46
2018-11-25T01:02:25.481Z,75.32
2018-11-25T01:04:54.027Z,75.57
2018-11-25T01:07:22.653Z,75.21
2018-11-25T01:09:51.222Z,74.61
2018-11-25T01:12:20.217Z,74.82
2018-11-25T01:14:48.893Z,74.86
2018-11-25T01:17:17.401Z,74.90
2018-11-25T01:19:46.060Z,74.83
2018-11-25T01:22:14.614Z,74.45
2018-11-25T01:24:43.296Z,75.02
2018-11-25T01:27:11.871Z,74.83
2018-11-25T01:29:40.575Z,74.56
2018-11-25T01:32:09.551Z,74.66
2018-11-25T01:34:38.723Z,74.38
2018-11-25T01:37:07.461Z,73.74
2018-11-25T01:39:36.465Z,74.29
2018-11-25T01:42:05.003Z,74.03
2018-11-25T01:44:33.857Z,74.51
2018-11-25T01:47:02.386Z,74.35
2018-11-25T01:49:31.174Z,74.79
2018-11-25T01:51:59.786Z,74.95
2018-11-25T01:54:28.355Z,74.95
2018-11-25T01:56:56.864Z,75.33
2018-11-25T01:59:25.482Z,74.69
2018-11-25T02:01:54.109Z,75.95
2018-11-25T02:04:22.961Z,75.66
2018-11-25T02:06:51.601Z,75.44
2018-11-25T02:09:20.429Z,76.24
2018-11-25T02:11:48.995Z,76.38
2018-11-25T02:14:17.633Z,75.79
2018-11-25T02:16:46.630Z,76.48
2018-11-25T02:19:15.198Z,76.60
2018-11-25T02:21:43.760Z,76.55
2018-11-25T02:24:12.857Z,76.67
2018-11-25T02:26:41.989Z,76.62
2018-11-25T02:29:10.591Z,76.69
2018-11-25T02:31:39.933Z,76.79
2018-11-25T02:34:08.589Z,76.56
2018-11-25T02:36:37.302Z,77.11
2018-11-25T02:39:08.508Z,77.17
2018-11-25T02:41:38.141Z,77.42
2018-11-25T02:44:06.705Z,77.59
2018-11-25T02:46:35.352Z,76.39
2018-11-25T02:49:05.591Z,76.94
2018-11-25T02:51:34.780Z,77.43
2018-11-25T02:54:03.312Z,77.14
2018-11-25T02:56:31.852Z,77.16
2018-11-25T02:59:00.640Z,76.24
2018-11-25T03:01:29.164Z,77.39
2018-11-25T03:03:57.793Z,77.06
2018-11-25T03:06:26.417Z,76.69
2018-11-25T03:08:55.585Z,76.76
2018-11-25T03:11:24.077Z,77.51
2018-11-25T03:13:52.889Z,77.92
2018-11-25T03:16:22.510Z,77.51
2018-11-25T03:18:51.052Z,77.18
2018-11-25T03:21:19.550Z,77.78
2018-11-25T03:23:48.253Z,77.51
2018-11-25T03:26:16.784Z,77.36
2018-11-25T03:28:45.871Z,77.81
2018-11-25T03:31:14.471Z,77.33
2018-11-25T03:33:43.013Z,77.61
2018-11-25T03:36:11.533Z,77.79
2018-11-25T03:38:40.184Z,77.94
2018-11-25T03:41:08.761Z,77.80
2018-11-25T03:43:37.288Z,77.53
2018-11-25T03:46:07.895Z,77.38
2018-11-25T03:48:37.254Z,77.93
2018-11-25T03:51:05.901Z,77.98
2018-11-25T03:53:34.426Z,77.77
2018-11-25T03:56:02.946Z,78.57
2018-11-25T03:58:31.584Z,78.21
2018-11-25T04:01:00.128Z,78.63
2018-11-25T04:03:28.688Z,78.12
2018-11-25T04:05:57.240Z,78.39
2018-11-25T04:08:25.925Z,78.53
2018-11-25T04:10:54.518Z,78.30
2018-11-25T04:13:23.221Z,78.50
2018-11-25T04:15:51.817Z,78.31
2018-11-25T04:18:20.363Z,78.02
2018-11-25T04:20:49.003Z,78.35
2018-11-25T04:23:17.602Z,78.35
2018-11-25T04:25:46.297Z,78.54
2018-11-25T04:28:14.923Z,78.14
2018-11-25T04:30:44.025Z,78.63
2018-11-25T04:33:12.653Z,78.31
2018-11-25T04:35:42.026Z,78.69
2018-11-25T04:38:10.665Z,79.29
2018-11-25T04:40:39.351Z,78.57
2018-11-25T04:43:08.795Z,79.21
2018-11-25T04:45:37.325Z,78.91
2018-11-25T04:48:05.867Z,79.27
2018-11-25T04:50:35.413Z,78.76
2018-11-25T04:53:04.276Z,78.46
2018-11-25T04:55:32.810Z,78.62
2018-11-25T04:58:01.777Z,78.79
2018-11-25T05:00:30.702Z,79.07
2018-11-25T05:02:59.377Z,78.65
2018-11-25T05:05:28.610Z,78.71
2018-11-25T05:07:57.233Z,78.81
2018-11-25T05:10:25.759Z,78.54
2018-11-25T05:12:54.789Z,78.85
2018-11-25T05:15:23.896Z,78.23
2018-11-25T05:17:52.523Z,77.34
2018-11-25T05:20:21.353Z,78.08
2018-11-25T05:22:50.248Z,78.33
2018-11-25T05:25:19.689Z,78.17
2018-11-25T05:27:48.267Z,78.38
2018-11-25T05:30:18.847Z,78.91
2018-11-25T05:32:47.536Z,78.41
2018-11-25T05:35:17.194Z,78.32
2018-11-25T05:37:45.801Z,78.16
2018-11-25T05:40:15.455Z,77.63
2018-11-25T05:42:44.406Z,78.70
2018-11-25T05:45:16.179Z,78.93
2018-11-25T05:47:44.777Z,78.63
2018-11-25T05:50:16.311Z,79.13
2018-11-25T05:52:45.419Z,79.24
2018-11-25T05:55:14.238Z,79.14
2018-11-25T05:57:43.221Z,79.38
2018-11-25T06:00:19.605Z,80.21
2018-11-25T06:02:48.181Z,80.10
2018-11-25T06:05:16.733Z,80.18
2018-11-25T06:07:45.265Z,79.69
2018-11-25T06:10:14.693Z,79.45
2018-11-25T06:12:43.432Z,80.09
2018-11-25T06:15:14.362Z,79.83
2018-11-25T06:17:43.221Z,79.35
2018-11-25T06:20:14.045Z,78.47
2018-11-25T06:22:42.730Z,79.38
2018-11-25T06:25:15.780Z,78.81
2018-11-25T06:27:44.843Z,79.00
2018-11-25T06:30:16.363Z,79.45
2018-11-25T06:32:45.657Z,79.10
2018-11-25T06:35:15.446Z,79.57
2018-11-25T06:37:44.040Z,79.14
2018-11-25T06:40:14.866Z,78.70
2018-11-25T06:42:43.507Z,79.06
2018-11-25T06:45:22.034Z,79.33
2018-11-25T06:47:50.994Z,79.09
2018-11-25T06:50:19.568Z,78.42
2018-11-25T06:52:48.348Z,78.68
2018-11-25T06:55:16.862Z,78.42
2018-11-25T06:57:45.505Z,78.05
2018-11-25T07:00:18.098Z,77.85
2018-11-25T07:02:46.632Z,78.38
2018-11-25T07:05:15.262Z,77.58
2018-11-25T07:07:43.939Z,77.51
2018-11-25T07:10:15.549Z,77.74
2018-11-25T07:12:44.430Z,77.83
2018-11-25T07:15:15.031Z,78.10
2018-11-25T07:17:44.150Z,77.86
2018-11-25T07:20:14.074Z,77.52
2018-11-25T07:22:42.758Z,78.05
2018-11-25T07:25:13.594Z,76.85
2018-11-25T07:27:42.835Z,77.25
2018-11-25T07:30:24.530Z,76.59
2018-11-25T07:32:53.169Z,76.32
2018-11-25T07:35:22.450Z,76.88
2018-11-25T07:37:51.012Z,76.95
2018-11-25T07:40:21.542Z,77.40
2018-11-25T07:42:50.441Z,77.70
2018-11-25T07:45:21.197Z,77.20
2018-11-25T07:47:49.819Z,76.83
2018-11-25T07:50:18.688Z,77.18
2018-11-25T07:52:48.228Z,77.24
2018-11-25T07:55:25.422Z,76.42
2018-11-25T07:57:55.625Z,77.11
2018-11-25T08:00:26.605Z,77.18
2018-11-25T08:02:58.164Z,76.26
2018-11-25T08:05:27.884Z,76.74
2018-11-25T08:07:56.626Z,76.79
2018-11-25T08:10:26.560Z,76.74
2018-11-25T08:12:57.104Z,77.11
2018-11-25T08:15:26.686Z,77.02
2018-11-25T08:17:57.535Z,77.46
2018-11-25T08:20:27.168Z,77.42
2018-11-25T08:22:57.333Z,77.62
2018-11-25T08:25:26.700Z,77.01
2018-11-25T08:27:55.990Z,77.28
2018-11-25T08:30:26.275Z,77.25
2018-11-25T08:32:56.477Z,77.41
2018-11-25T08:35:25.735Z,77.78
2018-11-25T08:37:55.475Z,77.39
2018-11-25T08:40:25.273Z,77.61
2018-11-25T08:42:54.109Z,77.10
2018-11-25T08:45:22.779Z,76.66
2018-11-25T08:47:51.509Z,76.86
2018-11-25T08:50:20.630Z,77.36
2018-11-25T08:52:50.436Z,76.35
2018-11-25T08:55:20.448Z,77.07
2018-11-25T08:57:49.185Z,76.98
2018-11-25T09:00:21.522Z,76.23
2018-11-25T09:02:51.037Z,75.94
2018-11-25T09:05:20.241Z,76.17
2018-11-25T09:07:48.878Z,76.28
2018-11-25T09:10:18.622Z,75.96
2018-11-25T09:12:55.248Z,76.42
2018-11-25T09:15:18.730Z,75.90
2018-11-25T09:17:47.571Z,75.65
2018-11-25T09:20:17.354Z,76.07
2018-11-25T09:22:46.021Z,75.98
2018-11-25T09:25:17.625Z,74.99
2018-11-25T09:27:46.379Z,75.09
2018-11-25T09:30:16.278Z,75.16
2018-11-25T09:32:45.287Z,75.50
2018-11-25T09:35:13.950Z,74.93
2018-11-25T09:37:43.377Z,75.53
2018-11-25T09:40:15.061Z,74.90
2018-11-25T09:42:43.770Z,74.59
2018-11-25T09:45:13.524Z,74.82
2018-11-25T09:47:42.547Z,75.15
2018-11-25T09:50:15.402Z,75.12
2018-11-25T09:52:44.126Z,74.67
2018-11-25T09:55:17.851Z,74.90
2018-11-25T09:57:48.839Z,74.73
2018-11-25T10:00:24.445Z,74.29
2018-11-25T10:02:53.294Z,74.43
2018-11-25T10:05:22.043Z,74.82
2018-11-25T10:07:50.907Z,74.76
2018-11-25T10:10:21.546Z,74.38
2018-11-25T10:12:50.433Z,73.49
2018-11-25T10:15:20.652Z,74.15
2018-11-25T10:17:59.018Z,74.58
2018-11-25T10:20:24.328Z,74.35
2018-11-25T10:22:54.154Z,73.65
2018-11-25T10:25:23.848Z,72.44
2018-11-25T10:27:53.761Z,71.29
2018-11-25T10:30:25.191Z,71.12
2018-11-25T10:33:10.045Z,72.20
2018-11-25T10:35:39.637Z,72.37
2018-11-25T10:38:08.627Z,72.55
2018-11-25T10:40:37.158Z,71.27
2018-11-25T10:43:05.800Z,71.68
2018-11-25T10:45:34.977Z,71.15
2018-11-25T10:48:04.296Z,70.55
2018-11-25T10:50:32.925Z,71.80
2018-11-25T10:53:02.025Z,70.51
2018-11-25T10:55:30.657Z,70.75
2018-11-25T10:57:59.202Z,70.62
2018-11-25T11:00:35.141Z,70.34
2018-11-25T11:03:10.014Z,69.82
2018-11-25T11:05:44.427Z,71.24
2018-11-25T11:08:13.066Z,70.36
2018-11-25T11:10:42.103Z,69.44
2018-11-25T11:13:11.340Z,70.55
2018-11-25T11:15:40.130Z,69.57
2018-11-25T11:18:09.050Z,69.28
2018-11-25T11:20:37.612Z,69.49
2018-11-25T11:23:06.915Z,69.19
2018-11-25T11:25:35.557Z,68.13
2018-11-25T11:28:04.767Z,67.76
2018-11-25T11:30:33.998Z,68.30
2018-11-25T11:33:02.584Z,69.05
2018-11-25T11:35:31.578Z,68.80
2018-11-25T11:38:00.259Z,69.23
2018-11-25T11:40:28.968Z,68.77
2018-11-25T11:42:57.584Z,68.51
2018-11-25T11:45:26.292Z,67.97
2018-11-25T11:47:55.685Z,67.47
2018-11-25T11:50:42.886Z,68.07
2018-11-25T11:53:23.276Z,67.91
2018-11-25T11:55:58.999Z,68.60
2018-11-25T11:58:33.548Z,69.59
2018-11-25T12:01:11.390Z,69.08
2018-11-25T12:03:44.024Z,68.33
2018-11-25T12:06:22.262Z,69.23
2018-11-25T12:08:55.989Z,69.37
2018-11-25T12:11:32.542Z,68.88
2018-11-25T12:14:07.446Z,68.71
2018-11-25T12:16:38.750Z,69.30
2018-11-25T12:19:10.270Z,69.00
2018-11-25T12:21:39.381Z,69.08
2018-11-25T12:24:10.121Z,68.86
2018-11-25T12:26:39.832Z,69.62
2018-11-25T12:29:10.597Z,68.61
2018-11-25T12:31:40.623Z,68.62
2018-11-25T12:34:10.980Z,68.44
2018-11-25T12:36:43.617Z,68.20
2018-11-25T12:39:13.399Z,69.35
2018-11-25T12:41:43.625Z,69.69
2018-11-25T12:44:13.419Z,69.97
2018-11-25T12:46:43.347Z,70.05
2018-11-25T12:49:12.865Z,69.66
2018-11-25T12:51:42.357Z,69.84
2018-11-25T12:54:13.034Z,69.91
2018-11-25T12:56:44.036Z,69.33
2018-11-25T12:59:12.393Z,69.42
2018-11-25T13:01:42.557Z,69.54
2018-11-25T13:04:12.415Z,69.48
2018-11-25T13:06:42.029Z,69.99
2018-11-25T13:09:12.411Z,68.71
2018-11-25T13:11:42.398Z,69.82
2018-11-25T13:14:14.545Z,69.56
2018-11-25T13:16:46.138Z,69.55
2018-11-25T13:19:17.294Z,68.99
2018-11-25T13:21:48.085Z,69.34
2018-11-25T13:24:18.162Z,68.96
2018-11-25T13:26:48.929Z,68.74
2018-11-25T13:29:20.740Z,69.26
2018-11-25T13:31:52.023Z,67.49
2018-11-25T13:34:22.508Z,68.34
2018-11-25T13:36:52.907Z,68.80
2018-11-25T13:39:22.729Z,69.17
2018-11-25T13:41:52.705Z,68.52
2018-11-25T13:44:24.426Z,68.36
2018-11-25T13:47:01.470Z,69.26
2018-11-25T13:49:37.445Z,69.38
2018-11-25T13:52:13.299Z,69.66
2018-11-25T13:54:50.261Z,69.42
2018-11-25T13:57:26.291Z,69.76
2018-11-25T13:59:56.060Z,69.35
2018-11-25T14:02:27.595Z,69.14
2018-11-25T14:04:57.175Z,68.95
2018-11-25T14:07:26.346Z,68.63
2018-11-25T14:09:56.880Z,68.87
2018-11-25T14:12:26.603Z,68.43
2018-11-25T14:14:57.106Z,68.63
2018-11-25T14:17:26.777Z,68.21
2018-11-25T14:19:57.461Z,68.51
2018-11-25T14:22:28.664Z,67.92
2018-11-25T14:25:01.618Z,67.90
2018-11-25T14:27:32.111Z,67.97
2018-11-25T14:30:03.392Z,67.97
2018-11-25T14:32:37.443Z,68.50
2018-11-25T14:35:11.894Z,68.46
2018-11-25T14:37:42.156Z,69.02
2018-11-25T14:40:15.503Z,69.15
2018-11-25T14:42:46.999Z,69.26
2018-11-25T14:45:19.874Z,68.86
2018-11-25T14:47:50.337Z,68.96
2018-11-25T14:50:23.069Z,69.02
2018-11-25T14:52:53.339Z,68.83
2018-11-25T14:55:23.371Z,68.64
2018-11-25T14:57:53.547Z,69.35
2018-11-25T15:00:26.352Z,69.50
2018-11-25T15:03:02.380Z,70.26
2018-11-25T15:05:52.614Z,69.41
2018-11-25T15:08:23.851Z,69.93
2018-11-25T15:10:54.335Z,69.36
2018-11-25T15:13:24.520Z,70.28
2018-11-25T15:15:54.915Z,70.04
2018-11-25T15:18:24.072Z,69.81
2018-11-25T15:20:55.286Z,70.09
2018-11-25T15:23:25.090Z,70.07
2018-11-25T15:25:56.206Z,69.80
2018-11-25T15:28:27.581Z,70.45
2018-11-25T15:30:56.877Z,69.45
2018-11-25T15:33:27.249Z,69.63
2018-11-25T15:35:56.405Z,69.07
2018-11-25T15:38:27.752Z,69.50
2018-11-25T15:40:58.866Z,69.45
2018-11-25T15:43:29.538Z,69.47
2018-11-25T15:46:03.206Z,69.11
2018-11-25T15:48:34.142Z,68.75
2018-11-25T15:51:06.431Z,69.41
2018-11-25T15:53:35.111Z,69.44
2018-11-25T15:56:07.077Z,68.87
2018-11-25T15:58:35.706Z,69.34
2018-11-25T16:01:04.328Z,69.10
2018-11-25T16:03:32.915Z,69.44
2018-11-25T16:06:06.378Z,68.80
2018-11-25T16:08:38.209Z,68.65
2018-11-25T16:11:04.220Z,68.82
2018-11-25T16:13:32.762Z,68.70
2018-11-25T16:16:01.670Z,68.96
2018-11-25T16:18:30.310Z,69.04
2018-11-25T16:20:58.834Z,69.05
2018-11-25T16:23:28.221Z,68.83
2018-11-25T16:25:58.961Z,69.21
2018-11-25T16:28:35.065Z,68.74
2018-11-25T16:31:03.675Z,68.94
2018-11-25T16:33:33.398Z,69.12
2018-11-25T16:36:02.023Z,69.05
2018-11-25T16:38:30.639Z,69.59
2018-11-25T16:40:59.821Z,69.17
2018-11-25T16:43:28.895Z,69.45
2018-11-25T16:45:57.601Z,69.70
2018-11-25T16:48:28.015Z,69.42
2018-11-25T16:50:57.706Z,69.63
2018-11-25T16:53:26.342Z,69.35
2018-11-25T16:55:55.533Z,68.98
2018-11-25T16:58:24.229Z,68.62
2018-11-25T17:00:53.338Z,67.94
2018-11-25T17:03:22.747Z,68.34
2018-11-25T17:05:52.962Z,68.93
2018-11-25T17:08:29.399Z,68.55
2018-11-25T17:10:59.308Z,68.87
2018-11-25T17:13:27.873Z,69.12
2018-11-25T17:15:56.482Z,68.84
2018-11-25T17:18:25.025Z,68.96
2018-11-25T17:20:53.600Z,69.19
2018-11-25T17:23:22.142Z,68.56
2018-11-25T17:25:50.839Z,68.07
2018-11-25T17:28:19.442Z,68.35
2018-11-25T17:30:48.029Z,68.99
2018-11-25T17:33:16.657Z,68.95
2018-11-25T17:35:45.381Z,68.87
2018-11-25T17:38:13.999Z,68.90
2018-11-25T17:40:42.613Z,68.79
2018-11-25T17:43:13.109Z,68.95
2018-11-25T17:45:41.727Z,68.84
2018-11-25T17:48:11.911Z,68.54
2018-11-25T17:50:40.585Z,68.61
2018-11-25T17:53:10.503Z,69.23
2018-11-25T17:55:40.252Z,68.47
2018-11-25T17:58:09.660Z,68.65
2018-11-25T18:00:42.631Z,68.62
2018-11-25T18:03:14.237Z,67.93
2018-11-25T18:05:42.884Z,67.72
2018-11-25T18:08:12.034Z,68.52
2018-11-25T18:10:40.724Z,68.98
2018-11-25T18:13:09.438Z,68.43
2018-11-25T18:15:39.257Z,68.60
2018-11-25T18:18:14.571Z,68.53
2018-11-25T18:20:49.215Z,68.57
2018-11-25T18:23:17.786Z,69.01
2018-11-25T18:25:47.566Z,68.87
2018-11-25T18:28:16.475Z,69.19
2018-11-25T18:30:46.574Z,68.56
2018-11-25T18:33:15.163Z,68.72
2018-11-25T18:35:44.241Z,68.10
2018-11-25T18:38:12.985Z,68.48
2018-11-25T18:40:41.662Z,68.64
2018-11-25T18:43:10.314Z,68.48
2018-11-25T18:45:39.171Z,68.63
2018-11-25T18:48:09.749Z,68.45
2018-11-25T18:50:56.961Z,68.10
2018-11-25T18:53:25.666Z,68.49
2018-11-25T18:55:53.256Z,68.27
2018-11-25T18:58:27.114Z,68.30
2018-11-25T19:01:04.904Z,68.07
2018-11-25T19:03:33.934Z,67.84
2018-11-25T19:06:02.697Z,68.42
2018-11-25T19:08:31.358Z,67.87
2018-11-25T19:11:04.672Z,68.50
2018-11-25T19:13:33.484Z,68.37
2018-11-25T19:16:11.079Z,67.32
2018-11-25T19:18:39.943Z,67.62
2018-11-25T19:21:08.842Z,66.81
2018-11-25T19:23:42.117Z,67.31
2018-11-25T19:26:17.243Z,67.07
2018-11-25T19:34:48.057Z,66.91
2018-11-25T19:37:38.913Z,67.26
2018-11-25T19:40:27.643Z,67.05
2018-11-25T19:42:57.890Z,66.87
2018-11-25T19:45:29.707Z,67.15
2018-11-25T19:48:01.171Z,67.56
2018-11-25T19:50:34.313Z,66.91
2018-11-25T19:53:05.745Z,67.17
2018-11-25T19:55:36.848Z,67.11
2018-11-25T19:58:08.159Z,67.33
2018-11-25T20:00:40.192Z,67.57
2018-11-25T20:03:11.440Z,67.07
2018-11-25T20:05:47.749Z,67.15
2018-11-25T20:08:18.961Z,67.12
2018-11-25T20:10:51.850Z,67.13
2018-11-25T20:13:21.452Z,66.84
2018-11-25T20:15:50.164Z,66.65
2018-11-25T20:18:24.642Z,66.18
2018-11-25T20:20:59.417Z,66.47
2018-11-25T20:23:28.549Z,66.47
2018-11-25T20:25:57.181Z,66.47
2018-11-25T20:28:27.837Z,66.26
2018-11-25T20:30:57.137Z,66.25
2018-11-25T20:33:32.426Z,65.84
2018-11-25T20:36:02.826Z,65.71
2018-11-25T20:38:37.175Z,65.45
2018-11-25T20:41:08.850Z,66.17
2018-11-25T20:43:37.752Z,66.11
2018-11-25T20:46:12.501Z,65.96
2018-11-25T20:48:41.707Z,66.14
2018-11-25T20:51:11.378Z,66.09
2018-11-25T20:53:45.648Z,65.45
2018-11-25T20:56:14.654Z,64.71
2018-11-25T20:58:43.307Z,66.14
2018-11-25T21:01:11.913Z,66.17
2018-11-25T21:03:40.535Z,65.70
2018-11-25T21:06:09.168Z,66.25
2018-11-25T21:08:37.867Z,65.99
2018-11-25T21:11:06.797Z,66.26
2018-11-25T21:13:35.344Z,66.12
2018-11-25T21:16:04.130Z,66.22
2018-11-25T21:18:32.649Z,66.03
2018-11-25T21:21:01.172Z,65.62
2018-11-25T21:23:30.043Z,65.97
2018-11-25T21:26:00.481Z,66.44
2018-11-25T21:28:29.184Z,66.46
2018-11-25T21:30:57.798Z,66.44
2018-11-25T21:33:26.758Z,66.29
2018-11-25T21:35:56.160Z,66.09
2018-11-25T21:38:25.166Z,65.78
2018-11-25T21:40:54.325Z,65.80
2018-11-25T21:43:23.310Z,66.13
2018-11-25T21:45:52.179Z,65.94
2018-11-25T21:48:21.718Z,65.70
2018-11-25T21:50:50.593Z,65.83
2018-11-25T21:53:19.367Z,66.10
2018-11-25T21:58:17.529Z,65.89
2018-11-25T22:00:46.482Z,65.83
2018-11-25T22:03:16.093Z,65.80
2018-11-25T22:05:44.861Z,65.87
2018-11-25T22:08:13.913Z,65.83
2018-11-25T22:10:42.947Z,65.51
2018-11-25T22:13:12.374Z,65.77
2018-11-25T22:15:42.238Z,65.56
2018-11-25T22:18:11.003Z,65.66
2018-11-25T22:20:40.021Z,65.63
2018-11-25T22:23:08.858Z,65.55
2018-11-25T22:25:37.628Z,65.96
2018-11-25T22:28:06.832Z,65.13
2018-11-25T22:30:35.508Z,65.47
2018-11-25T22:33:04.305Z,65.61
2018-11-25T22:35:34.025Z,65.72
2018-11-25T22:38:02.801Z,65.76
2018-11-25T22:40:31.476Z,65.67
2018-11-25T22:43:00.165Z,65.63
2018-11-25T22:45:28.771Z,65.44
2018-11-25T22:47:57.501Z,65.85
2018-11-25T22:50:27.895Z,65.94
2018-11-25T22:52:56.847Z,65.08
2018-11-25T22:55:26.936Z,65.33
2018-11-25T22:57:55.918Z,65.58
2018-11-25T23:00:31.143Z,65.82
2018-11-25T23:02:59.713Z,65.97
2018-11-25T23:05:39.469Z,66.02
2018-11-25T23:08:08.023Z,65.58
2018-11-25T23:10:38.868Z,66.24
2018-11-25T23:13:09.401Z,65.68
2018-11-25T23:15:38.521Z,65.78
2018-11-25T23:18:09.266Z,65.33
2018-11-25T23:20:38.255Z,65.46
2018-11-25T23:23:08.208Z,64.91
2018-11-25T23:25:37.149Z,65.17
2018-11-25T23:28:06.574Z,65.54
2018-11-25T23:30:35.310Z,65.60
2018-11-25T23:33:04.780Z,65.93
2018-11-25T23:35:34.484Z,65.52
2018-11-25T23:38:03.020Z,65.85
2018-11-25T23:40:31.597Z,66.28
2018-11-25T23:43:00.182Z,65.89
2018-11-25T23:45:28.741Z,65.62
2018-11-25T23:47:57.397Z,65.98
2018-11-25T23:50:26.011Z,66.49
2018-11-25T23:52:54.694Z,66.53
2018-11-25T23:55:23.233Z,66.29
2018-11-25T23:57:51.778Z,66.33
